Bedford, PA

12:51 PM EST on January 27, 2015 (GMT -0500)
E South Street, along Juniata River | Change Station
CLOSE
Current Station
Personal Weather Station
Location: Everett, PA
Elevation: 1015 ft
Nearby Weather Stations

Elev 1015 ft 40.01 °N, 78.37 °W | Updated 10 minutes ago

Overcast
Overcast
31.3 °F
Feels Like 31 °F
N
0.0
Wind Variable Wind from SSE

Today
High -- | Low -- °F
--% Chance of Precip.
Yesterday
High -- | Low -- °F
Precip. -- in
7:27 AM 5:26 PM
First Quarter, 56% visible
Pressure 29.81 in
Visibility 8.0 miles
Clouds Scattered Clouds 1800 ft
Scattered Clouds 2300 ft
Overcast 3200 ft
Windchill 31 °F
Dew Point 24 °F
Humidity 75%
Rainfall 0.00 in
Snow Depth Not available.
UV 1 out of 12
Pollen .10 out of 12
Air Quality Not available.
Flu Activity Not available.
SPECI KAOO 271706Z AUTO 31011KT 8SM SCT018 SCT023 OVC032 M05/M08 A2981 RMK AO2 T10501083

More Conditions Fewer Conditions

Pressure 29.81 in
Visibility 8.0 miles
Clouds Scattered Clouds 1800 ft
Scattered Clouds 2300 ft
Overcast 3200 ft
Windchill 31 °F
Dew Point 24 °F
Humidity 75%
Rainfall 0.00 in
Snow Depth Not available.
UV 1 out of 12
Pollen .10 out of 12
Air Quality Not available.
Flu Activity Not available.
SPECI KAOO 271706Z AUTO 31011KT 8SM SCT018 SCT023 OVC032 M05/M08 A2981 RMK AO2 T10501083

More Conditions Fewer Conditions

10-Day Weather Forecast

Almanac

Astronomy

Jan. 27, 2015 Rise Set
Actual Time
Civil Twilight
Nautical Twilight
Astronomical Twilight
Moon
Length of Visible Light
Length of Day
Tomorrow will be .
, % of the Moon is Illuminated

Today's Extremes

State Highs State Lows

Community

WunderPhotos

Upload Photos

1,790,741 photos uploaded!

WunderBlogs® & News

Nearby

Air Quality

  Air Quality AQ Index Pollutant
Not available.

Snow Depth

Station Depth Elevation

Earthquake Activity

City Distance Mag. Time & Date
Minimum magnitude displayed is 2.5.

Coastal Water Temperatures

Place Temperature

Nearby Weather Stations